x

Buoy B01 - Western Maine Shelf (44030) Wave Buoy

7:04 - Fri 27th May 2016 All times are EDT. -4 hours from GMT.

  • Sig Wave height 2.3ft
  • Peak Period 5s
  • Wind
    9mph
  • Sea Temp 53°f
  • Ar Temp 53°f
  • Sea Pressure 1020.2mb
  • Buoy B01 - Western Maine Shelf
  • Buoy B01 - Western Maine Shelf

More Historic Weather Station data

Upgrade to MSW Pro to gain access to the past 30 days of data for over 8000 Wavebouys and Weather Stations around the globe.

Join Pro

Comparision Forecast

View Surf forecast
   
Sex 05/27 7:04 2.5ft 5s 9
mph
1020.2mb 53f 53f
6:04 2.5ft 5s 7 9 mph 1020mb 53f 54f
5:04 3ft 5s 7 9 mph 1020mb 53f 54f
4:04 3ft 5s 9 11 mph 1019.8mb 53f 54f
3:04 3.5ft 5s 9 11 mph 1019.7mb 53f 55f
2:04 3ft 8s 11 13 mph 1019.7mb 53f 55f
1:04 2.5ft 8s 13 16 mph 1019.2mb 53f 55f
12:04 2.5ft 8s 4 7 mph 1019.9mb 53f 55f
Qui 05/26 11:04 2.5ft 8s 7
mph
1019.9mb 53f 55f
10:04 2.5ft 8s 9
mph
1019.6mb 53f 55f
9:04 2.5ft 8s 11 13 mph 1018.9mb 53f 56f
8:04 2.5ft 8s 9 11 mph 1018.9mb 53f 56f
7:04  -   -  11 13 mph 1018.6mb 54f 57f
6:04 2ft 8s 11 13 mph 1018.3mb 54f 57f
5:04 2ft 8s 9 11 mph 1017.8mb 55f 57f
4:04 2ft 8s 9 11 mph 1017.9mb 54f 57f
3:04 2ft 6s 7 9 mph 1018mb 54f 56f
2:04 2.5ft 8s 9
mph
1018.1mb 54f 58f
1:04 2.5ft 8s 7 9 mph 1018.1mb 54f 58f
12:04 2.5ft 8s 9
mph
1018.3mb 52f 58f
11:04 2ft 8s 7
mph
1018.4mb 51f 58f
10:04 2ft 8s 4 7 mph 1018.7mb 51f 59f
9:04 2.5ft 8s 2
mph
1018.8mb 51f 61f
8:04 2.5ft 8s 4 7 mph 1018.9mb 51f 58f
7:04 2.5ft 8s 4
mph
1018.5mb 51f 56f
6:04 2.5ft 8s 4 7 mph 1017.6mb 51f 58f
5:04 2.5ft 8s 4 7 mph 1016.8mb 51f 54f
4:04 2.5ft 8s 7
mph
1015.9mb 51f 55f
3:04 2.5ft 8s 11
mph
1015.2mb 51f 55f
2:04 2.5ft 8s 7
mph
1014.6mb 51f 53f
1:04 3ft 8s 4
mph
1014.9mb 51f 53f
12:04 3.5ft 6s 2 4 mph 1014.9mb 51f 53f
Qua 05/25 11:04 3ft 8s 9 11 mph 1014.7mb 51f 53f
10:04 3ft 8s 13 18 mph 1014.3mb 51f 53f
9:04 2.5ft 8s 2 4 mph 1013.3mb 51f 53f
8:04 3ft 8s 2 4 mph 1012.8mb 51f 55f
7:04 2.5ft 8s 4 9 mph 1013.2mb 51f 55f
6:04 3.5ft 8s 9 11 mph 1012.7mb 51f 55f
5:04 3.5ft 8s 16 18 mph 1012.2mb 51f 55f
4:04 3.5ft 8s 9 11 mph 1013mb 51f 54f
3:04 1.6ft 3s 11 13 mph 1013.2mb 51f 52f
2:04 3.5ft 8s 13 16 mph 1013.5mb 51f 52f
1:04 1.3ft 3s 13 16 mph 1014mb 51f 51f
12:04 3ft 8s 9 13 mph 1014.7mb 51f 51f
11:04 3.5ft 8s 11
mph
1015.2mb 51f 51f
10:04 3.5ft 8s 7 9 mph 1015.6mb 50f 51f
9:04 3.5ft 8s 7 9 mph 1015.6mb 50f 51f
8:04 3ft 8s 7 9 mph 1015.6mb 50f 50f
7:04 3ft 8s 4 7 mph 1015.3mb 50f 50f
6:04 3ft 8s 4
mph
1015.2mb 50f 49f
5:04 3ft 8s 2 4 mph 1014.7mb 50f 49f
4:04 3ft 11s 2
mph
1014.5mb 50f 49f
3:04 3ft 11s 4
mph
1014.5mb 50f 49f
2:04 3.5ft 8s 4
mph
1014.2mb 50f 49f
1:04 4ft 8s 4 7 mph 1014.9mb 50f 49f
12:04 4ft 8s 4
mph
1014.6mb 50f 49f
Ter 05/24 11:04 4ft 8s 7 9 mph 1014.8mb 50f 49f
10:04 4.5ft 8s 7
mph
1014.9mb 50f 49f
9:04 4ft 8s 7 9 mph 1014.7mb 50f 49f
8:04 4ft 11s 9 11 mph 1014.5mb 50f 49f
7:04 4.5ft 8s 11
mph
1014.1mb 50f 49f
6:04 4.5ft 8s 11 13 mph 1014.1mb 50f 49f
5:04 4ft 11s 11 13 mph 1014mb 49f 49f
4:04 4ft 11s 13 16 mph 1014mb 49f 49f
3:04 4.5ft 11s 11 16 mph 1014mb 49f 49f
2:04 3.5ft 5s 11 13 mph 1014.1mb 49f 49f
1:04 5ft 11s 13 16 mph 1014.1mb 49f 49f
12:04 3ft 4s 13 16 mph 1014.1mb 49f 49f
11:04 4.5ft 11s 13 16 mph 1014.1mb 49f 49f
10:04 4.5ft 11s 16 18 mph 1013.8mb 49f 50f
9:04 5ft 11s 16 18 mph 1013.5mb 50f 50f
8:04 5.5ft 11s 13 16 mph 1013.7mb 49f 50f
5:04 4ft 8s 18 20 mph 1012.6mb 50f 51f
4:04 4ft 11s 13 16 mph 1013.1mb 50f 52f
3:04 3ft 11s 11 13 mph 1012.6mb 51f 52f
2:04 3.5ft 11s 9 11 mph 1013.1mb 51f 53f
1:04 4ft 11s 9 11 mph 1013.5mb 52f 53f
12:04 4ft 11s 9 11 mph 1013.5mb 53f 53f
Seg 05/23 11:04 4ft 11s 9
mph
1013.5mb 54f 53f
10:04 4.5ft 8s 2 4 mph 1013.7mb 54f 53f
9:04 5ft 11s 7 9 mph 1013.3mb 54f 53f
8:04 4.5ft 11s 4
mph
1012.3mb 54f 54f
7:04 4.5ft 11s 7 9 mph 1011.8mb 53f 55f
6:04 5ft 11s 7
mph
1011.9mb 54f 56f
5:04 4.5ft 11s 7 9 mph 1011.4mb 53f 56f
4:04 4ft 11s 7
mph
1011.6mb 54f 58f
3:04 4.5ft 11s 4 7 mph 1011.6mb 53f 59f
2:04 3.5ft 11s 7
mph
1011.6mb 54f 58f
1:04 4.5ft 11s 7
mph
1012.3mb 53f 60f